Sky Queen — 3EHV9 — position and weather

sailwx.info

Track history (hours):
 
Tides and Currents Weather Stations Pressure Air Temp Water Temp Dewpoint Dewpoint Depression Visibility Wind Speed Wind Dir Waves Ship Positions

Sky Queen

Last reported at 2014-Aug-29 18:20 UTC. Time now 2014-Sep-17 23:41 UTC.
Position N 38°45' E 121°51'.
Warning: this ship's position is 19 days out of date.

Length 89 m; draft 5 m.

Type: Cargo ship. MMSI: 372259000.

Date/timePositionNaut miles runAvg speedWind from/ knotsBaromVisibWave heightAir tempDewpointWater temp
2014-Aug-29 18:20N 38°45' E 121°51'7 8.6
2014-Aug-29 17:33N 38°50' E 121°46'10 9.0
2014-Aug-29 16:24N 39°01' E 121°46'1 0.0
2014-Aug-27 19:13N 39°01' E 121°45'3 5.0
2014-Aug-27 18:33N 38°58' E 121°47'9 9.2
2014-Aug-27 17:33N 38°49' E 121°46'10 9.8
2014-Aug-27 16:33N 38°40' E 121°41'11 8.8
2014-Aug-27 15:19N 38°32' E 121°32'8 9.8
2014-Aug-27 14:29N 38°29' E 121°22'  
Track history (hours):
 
Tides and Currents Weather Stations Pressure Air Temp Water Temp Dewpoint Dewpoint Depression Visibility Wind Speed Wind Dir Waves Ship Positions

Sky Queen

Last reported at 2014-Aug-29 18:20 UTC. Time now 2014-Sep-17 23:41 UTC.
Position N 38°45' E 121°51'.
Warning: this ship's position is 19 days out of date.

Length 89 m; draft 5 m.

Type: Cargo ship. MMSI: 372259000.

Date/timePositionNaut miles runAvg speedWind from/ knotsBaromVisibWave heightAir tempDewpointWater temp
2014-Aug-29 18:20N 38°45' E 121°51'7 8.6
2014-Aug-29 17:33N 38°50' E 121°46'10 9.0
2014-Aug-29 16:24N 39°01' E 121°46'1 0.0
2014-Aug-27 19:13N 39°01' E 121°45'3 5.0
2014-Aug-27 18:33N 38°58' E 121°47'9 9.2
2014-Aug-27 17:33N 38°49' E 121°46'10 9.8
2014-Aug-27 16:33N 38°40' E 121°41'11 8.8
2014-Aug-27 15:19N 38°32' E 121°32'8 9.8
2014-Aug-27 14:29N 38°29' E 121°22'  

Dump ship's entire track history